Time;durP1;ratioP1;P1;durP2;ratioP2;P2;SDS_P1;SDS_P2;PMS_P1;PMS_P2;Temp;Humidity;BMP_temperature;BMP_pressure;BME280_temperature;BME280_humidity;BME280_pressure;Samples;Min_cycle;Max_cycle;Signal;HPM_P1;HPM_P2
2023/03/22 00:00:28;;;;;;;;;;;10.20;99.90;;;;;;5011150;28;144470;-75
2023/03/22 00:02:55;;;;;;;;;;;10.20;99.90;;;;;;5060121;28;19927;-75
2023/03/22 00:05:21;;;;;;;;;;;10.20;99.90;;;;;;5004687;28;191431;-75
2023/03/22 00:07:49;;;;;;;;;;;10.20;99.90;;;;;;5063182;28;20309;-75
2023/03/22 00:10:15;;;;;;;;;;;10.20;99.90;;;;;;5006149;28;207650;-75
2023/03/22 00:12:41;;;;;;;;;;;10.10;99.90;;;;;;5057756;28;19950;-75
2023/03/22 00:15:08;;;;;;;;;;;10.20;99.90;;;;;;5001949;28;210003;-75
2023/03/22 00:17:35;;;;;;;;;;;10.10;99.90;;;;;;5065540;28;19924;-75
2023/03/22 00:20:05;;;;;;;;;;;10.10;99.90;;;;;;4993909;28;206220;-75
2023/03/22 00:22:31;;;;;;;;;;;10.10;99.90;;;;;;5061733;28;19928;-75
2023/03/22 00:24:57;;;;;;;;;;;10.10;99.90;;;;;;5001030;28;209359;-75
2023/03/22 00:27:23;;;;;;;;;;;10.00;99.90;;;;;;5055740;28;19943;-75
2023/03/22 00:29:52;;;;;;;;;;;10.00;99.90;;;;;;4992363;28;205484;-75
2023/03/22 00:32:18;;;;;;;;;;;10.00;99.90;;;;;;5054272;28;20377;-76
2023/03/22 00:34:44;;;;;;;;;;;10.00;99.90;;;;;;5010123;28;209466;-75
2023/03/22 00:37:10;;;;;;;;;;;9.90;99.90;;;;;;5060659;28;19931;-76
2023/03/22 00:39:36;;;;;;;;;;;9.90;99.90;;;;;;5006289;28;206550;-75
2023/03/22 00:42:03;;;;;;;;;;;9.90;99.90;;;;;;5051945;28;19921;-75
2023/03/22 00:44:29;;;;;;;;;;;9.90;99.90;;;;;;5006009;28;214603;-75
2023/03/22 00:46:55;;;;;;;;;;;9.80;99.90;;;;;;5056571;28;20022;-75
2023/03/22 00:49:20;;;;;;;;;;;9.80;99.90;;;;;;5008297;28;207258;-75
2023/03/22 00:51:46;;;;;;;;;;;9.80;99.90;;;;;;5063055;28;19921;-75
2023/03/22 00:54:12;;;;;;;;;;;9.80;99.90;;;;;;4999266;28;209506;-75
2023/03/22 00:56:38;;;;;;;;;;;9.80;99.90;;;;;;5050970;28;19939;-75
2023/03/22 00:59:04;;;;;;;;;;;9.70;99.90;;;;;;5001967;28;209650;-75
2023/03/22 01:01:31;;;;;;;;;;;9.80;99.90;;;;;;5064686;28;19920;-76
2023/03/22 01:03:57;;;;;;;;;;;9.70;99.90;;;;;;4969617;28;229811;-75
2023/03/22 01:06:22;;;;;;;;;;;9.70;99.90;;;;;;5058800;28;19931;-75
2023/03/22 01:08:49;;;;;;;;;;;9.70;99.90;;;;;;5002511;28;210062;-75
2023/03/22 01:11:15;;;;;;;;;;;9.70;99.90;;;;;;5078888;28;19928;-76
2023/03/22 01:13:41;;;;;;;;;;;9.70;99.90;;;;;;5031840;28;206742;-74
2023/03/22 01:16:08;;;;;;;;;;;9.70;99.90;;;;;;5030473;28;19928;-75
2023/03/22 01:18:34;;;;;;;;;;;9.60;99.90;;;;;;5064012;28;19931;-75
2023/03/22 01:21:00;;;;;;;;;;;9.70;99.90;;;;;;5002682;28;206710;-75
2023/03/22 01:23:26;;;;;;;;;;;9.60;99.90;;;;;;5063183;28;19921;-75
2023/03/22 01:25:52;;;;;;;;;;;9.60;99.90;;;;;;4999887;28;205380;-75
2023/03/22 01:28:18;;;;;;;;;;;9.70;99.90;;;;;;5062124;28;19955;-74
2023/03/22 01:30:44;;;;;;;;;;;9.60;99.90;;;;;;4991361;28;206746;-75
2023/03/22 01:33:10;;;;;;;;;;;9.60;99.90;;;;;;5072314;28;19929;-74
2023/03/22 01:35:36;;;;;;;;;;;9.60;99.90;;;;;;5007007;28;210033;-74
2023/03/22 01:38:02;;;;;;;;;;;9.60;99.90;;;;;;5077289;28;19934;-75
2023/03/22 01:40:28;;;;;;;;;;;9.60;99.90;;;;;;5010368;28;205378;-75
2023/03/22 01:42:54;;;;;;;;;;;9.60;99.90;;;;;;5063989;28;20400;-75
2023/03/22 01:45:26;;;;;;;;;;;9.60;99.90;;;;;;5005811;28;208771;-74
2023/03/22 01:47:55;;;;;;;;;;;9.50;99.90;;;;;;5070864;28;19925;-75
2023/03/22 01:50:22;;;;;;;;;;;9.60;99.90;;;;;;5018030;28;213005;-75
2023/03/22 01:52:49;;;;;;;;;;;9.50;99.90;;;;;;5064524;28;19928;-73
2023/03/22 01:55:17;;;;;;;;;;;9.50;99.90;;;;;;5008675;28;211004;-76
2023/03/22 01:57:43;;;;;;;;;;;9.50;99.90;;;;;;5064668;28;19929;-75
2023/03/22 02:00:14;;;;;;;;;;;9.50;99.90;;;;;;4990377;28;206849;-75
2023/03/22 02:02:41;;;;;;;;;;;9.50;99.90;;;;;;5066193;28;20427;-75
2023/03/22 02:05:07;;;;;;;;;;;9.40;99.90;;;;;;5010038;28;206118;-75
2023/03/22 02:07:35;;;;;;;;;;;9.50;99.90;;;;;;5064374;28;19920;-75
2023/03/22 02:10:00;;;;;;;;;;;9.40;99.90;;;;;;4997082;28;206914;-75
2023/03/22 02:12:45;;;;;;;;;;;9.50;99.90;;;;;;5053665;28;19921;-75
2023/03/22 02:15:19;;;;;;;;;;;9.50;99.90;;;;;;5002782;28;206953;-75
2023/03/22 02:17:51;;;;;;;;;;;9.50;99.90;;;;;;5059826;28;19935;-75
2023/03/22 02:20:37;;;;;;;;;;;9.50;99.90;;;;;;5021428;28;206640;-75
2023/03/22 02:23:02;;;;;;;;;;;9.50;99.90;;;;;;5059541;28;19928;-74
2023/03/22 02:25:34;;;;;;;;;;;9.50;99.90;;;;;;5009399;28;208836;-75
2023/03/22 02:28:19;;;;;;;;;;;9.50;99.90;;;;;;5060949;28;19921;-74
2023/03/22 02:31:00;;;;;;;;;;;9.50;99.90;;;;;;4989509;28;205894;-75
2023/03/22 02:33:45;;;;;;;;;;;9.50;99.90;;;;;;5059757;28;19937;-75
2023/03/22 02:36:15;;;;;;;;;;;9.50;99.90;;;;;;4999454;28;37315;-75
2023/03/22 02:38:56;;;;;;;;;;;9.50;99.90;;;;;;5029582;28;215159;-75
2023/03/22 02:41:28;;;;;;;;;;;9.40;99.90;;;;;;5010216;28;19920;-75
2023/03/22 02:44:00;;;;;;;;;;;9.40;99.90;;;;;;5005728;28;205865;-75
2023/03/22 02:46:29;;;;;;;;;;;9.40;99.90;;;;;;5057379;28;19925;-75
2023/03/22 02:49:01;;;;;;;;;;;9.40;99.90;;;;;;5010437;28;207050;-74
2023/03/22 02:51:41;;;;;;;;;;;9.40;99.90;;;;;;5068734;28;19932;-75
2023/03/22 02:54:10;;;;;;;;;;;9.50;99.90;;;;;;5013071;28;209161;-75
2023/03/22 02:56:43;;;;;;;;;;;9.50;99.90;;;;;;5057180;28;19920;-74
2023/03/22 02:59:10;;;;;;;;;;;9.50;99.90;;;;;;5019541;28;206837;-75
2023/03/22 03:01:55;;;;;;;;;;;9.50;99.90;;;;;;5074799;28;19951;-74
2023/03/22 03:04:25;;;;;;;;;;;9.50;99.90;;;;;;5007387;28;208145;-75
2023/03/22 03:06:53;;;;;;;;;;;9.60;99.90;;;;;;5065785;28;19963;-74
2023/03/22 03:09:19;;;;;;;;;;;9.60;99.90;;;;;;5014308;28;217069;-75
2023/03/22 03:11:49;;;;;;;;;;;9.60;99.90;;;;;;5060107;28;19943;-74
2023/03/22 03:14:23;;;;;;;;;;;9.60;99.90;;;;;;5011464;28;205457;-74
2023/03/22 03:17:13;;;;;;;;;;;9.60;99.90;;;;;;5070568;28;20468;-74
2023/03/22 03:19:38;;;;;;;;;;;9.60;99.90;;;;;;5016274;28;208316;-74
2023/03/22 03:22:24;;;;;;;;;;;9.60;99.90;;;;;;5055836;28;20313;-74
2023/03/22 03:24:57;;;;;;;;;;;9.60;99.90;;;;;;5001960;28;206449;-75
2023/03/22 03:27:31;;;;;;;;;;;9.60;99.90;;;;;;5042914;28;19932;-75
2023/03/22 03:30:03;;;;;;;;;;;9.60;99.90;;;;;;5008415;28;211758;-76
2023/03/22 03:32:52;;;;;;;;;;;9.60;99.90;;;;;;5056958;28;20407;-75
2023/03/22 03:35:42;;;;;;;;;;;9.60;99.90;;;;;;4992968;28;206409;-75
2023/03/22 03:38:10;;;;;;;;;;;9.60;99.90;;;;;;5064095;28;19932;-75
2023/03/22 03:40:39;;;;;;;;;;;9.60;99.90;;;;;;4999844;28;210697;-75
2023/03/22 03:43:06;;;;;;;;;;;9.60;99.90;;;;;;5062947;28;19961;-75
2023/03/22 03:45:33;;;;;;;;;;;9.50;99.90;;;;;;5007071;28;211440;-75
2023/03/22 03:48:01;;;;;;;;;;;9.50;99.90;;;;;;5041823;28;19927;-74
2023/03/22 03:50:27;;;;;;;;;;;9.50;99.90;;;;;;4985028;28;205848;-74
2023/03/22 03:52:54;;;;;;;;;;;9.50;99.90;;;;;;5038778;28;19936;-74
2023/03/22 03:55:20;;;;;;;;;;;9.50;99.90;;;;;;4986748;28;209320;-74
2023/03/22 03:57:46;;;;;;;;;;;9.40;99.90;;;;;;5061480;28;20405;-74
2023/03/22 04:00:15;;;;;;;;;;;9.40;99.90;;;;;;5016657;28;113820;-74
2023/03/22 04:02:42;;;;;;;;;;;9.50;99.90;;;;;;5065169;28;19927;-73
2023/03/22 04:05:08;;;;;;;;;;;9.50;99.90;;;;;;5006628;28;221832;-74
2023/03/22 04:07:34;;;;;;;;;;;9.50;99.90;;;;;;5042881;28;20404;-74
2023/03/22 04:10:00;;;;;;;;;;;9.50;99.90;;;;;;5012442;28;207497;-74
2023/03/22 04:12:26;;;;;;;;;;;9.40;99.90;;;;;;5057061;28;19925;-74
2023/03/22 04:14:54;;;;;;;;;;;9.50;99.90;;;;;;5010586;28;208910;-74
2023/03/22 04:17:20;;;;;;;;;;;9.50;99.90;;;;;;5049971;28;19921;-73
2023/03/22 04:19:46;;;;;;;;;;;9.50;99.90;;;;;;5011653;28;209068;-74
2023/03/22 04:22:17;;;;;;;;;;;9.40;99.90;;;;;;5058756;28;20002;-75
2023/03/22 04:24:48;;;;;;;;;;;9.50;99.90;;;;;;5004797;28;207648;-74
2023/03/22 04:27:18;;;;;;;;;;;9.40;99.90;;;;;;5061965;28;19929;-74
2023/03/22 04:29:47;;;;;;;;;;;9.50;99.90;;;;;;5010153;28;211249;-75
2023/03/22 04:32:15;;;;;;;;;;;9.50;99.90;;;;;;5058204;28;19928;-74
2023/03/22 04:34:41;;;;;;;;;;;9.50;99.90;;;;;;5010309;28;151894;-75
2023/03/22 04:37:07;;;;;;;;;;;9.50;99.90;;;;;;5065302;28;19935;-75
2023/03/22 04:39:33;;;;;;;;;;;9.60;99.90;;;;;;5008189;28;207733;-75
2023/03/22 04:41:59;;;;;;;;;;;9.60;99.90;;;;;;5079439;28;19921;-75
2023/03/22 04:44:25;;;;;;;;;;;9.70;99.90;;;;;;5022201;28;207165;-75
2023/03/22 04:46:51;;;;;;;;;;;9.70;99.90;;;;;;5071280;28;19928;-75
2023/03/22 04:49:17;;;;;;;;;;;9.70;99.90;;;;;;5006284;28;209027;-75
2023/03/22 04:51:43;;;;;;;;;;;9.70;99.90;;;;;;5050053;28;19960;-75
2023/03/22 04:54:09;;;;;;;;;;;9.80;99.90;;;;;;5010881;28;207221;-74
2023/03/22 04:56:35;;;;;;;;;;;9.80;99.90;;;;;;5070164;28;19927;-74
2023/03/22 04:59:01;;;;;;;;;;;9.80;99.90;;;;;;5011933;28;206924;-75
2023/03/22 05:01:26;;;;;;;;;;;9.80;99.90;;;;;;5073404;28;19920;-75
2023/03/22 05:03:52;;;;;;;;;;;9.80;99.90;;;;;;5006651;28;209525;-75
2023/03/22 05:06:18;;;;;;;;;;;9.90;99.90;;;;;;5044975;28;19937;-75
2023/03/22 05:08:44;;;;;;;;;;;9.80;99.90;;;;;;5006953;28;207873;-75
2023/03/22 05:11:18;;;;;;;;;;;9.90;99.90;;;;;;5071914;28;19943;-75
2023/03/22 05:13:44;;;;;;;;;;;9.90;99.90;;;;;;5029493;28;206112;-75
2023/03/22 05:16:10;;;;;;;;;;;9.80;99.90;;;;;;5049200;28;19927;-75
2023/03/22 05:18:41;;;;;;;;;;;9.80;99.90;;;;;;5060157;28;19935;-74
2023/03/22 05:21:10;;;;;;;;;;;9.90;99.90;;;;;;4974568;28;205983;-75
2023/03/22 05:23:36;;;;;;;;;;;9.80;99.90;;;;;;5051450;28;207605;-74
2023/03/22 05:26:03;;;;;;;;;;;9.90;99.90;;;;;;5020516;28;70818;-74
2023/03/22 05:28:30;;;;;;;;;;;9.90;99.90;;;;;;5058281;28;19924;-74
2023/03/22 05:30:56;;;;;;;;;;;9.90;99.90;;;;;;5015927;28;206706;-75
2023/03/22 05:33:22;;;;;;;;;;;9.90;99.90;;;;;;5061835;28;19920;-75
2023/03/22 05:35:49;;;;;;;;;;;9.90;99.90;;;;;;5027700;28;207082;-74
2023/03/22 05:38:15;;;;;;;;;;;9.80;99.90;;;;;;5062509;28;19924;-75
2023/03/22 05:40:42;;;;;;;;;;;9.80;99.90;;;;;;5014225;28;208407;-74
2023/03/22 05:43:08;;;;;;;;;;;9.80;99.90;;;;;;5062910;28;19931;-74
2023/03/22 05:45:35;;;;;;;;;;;9.80;99.90;;;;;;5009125;28;206206;-75
2023/03/22 05:48:01;;;;;;;;;;;9.80;99.90;;;;;;5057684;28;19927;-75
2023/03/22 05:50:27;;;;;;;;;;;9.80;99.90;;;;;;5029001;28;210181;-74
2023/03/22 05:52:53;;;;;;;;;;;9.80;99.90;;;;;;5062153;28;19926;-74
2023/03/22 05:55:19;;;;;;;;;;;9.80;99.90;;;;;;5000738;28;208908;-74
2023/03/22 05:57:46;;;;;;;;;;;9.80;99.90;;;;;;5055539;28;20340;-74
2023/03/22 06:00:15;;;;;;;;;;;9.80;99.90;;;;;;5008825;28;208060;-74
2023/03/22 06:02:41;;;;;;;;;;;9.90;99.90;;;;;;5065028;28;19931;-74
2023/03/22 06:05:09;;;;;;;;;;;9.90;99.90;;;;;;4992522;28;209322;-74
2023/03/22 06:07:35;;;;;;;;;;;9.90;99.90;;;;;;5057182;28;19929;-74
2023/03/22 06:10:02;;;;;;;;;;;9.90;99.90;;;;;;5018186;28;184615;-75
2023/03/22 06:12:29;;;;;;;;;;;9.90;99.90;;;;;;5072719;28;20297;-75
2023/03/22 06:14:55;;;;;;;;;;;9.90;99.90;;;;;;5006134;28;87739;-74
2023/03/22 06:17:21;;;;;;;;;;;9.90;99.90;;;;;;5034763;28;20194;-74
2023/03/22 06:19:47;;;;;;;;;;;9.90;99.90;;;;;;5014508;28;205520;-74
2023/03/22 06:22:12;;;;;;;;;;;9.90;99.90;;;;;;5061182;28;19925;-75
2023/03/22 06:24:41;;;;;;;;;;;9.90;99.90;;;;;;5009155;28;206681;-75
2023/03/22 06:27:07;;;;;;;;;;;9.90;99.90;;;;;;5054872;28;19928;-74
2023/03/22 06:29:33;;;;;;;;;;;9.90;99.90;;;;;;4999460;28;206436;-74
2023/03/22 06:31:59;;;;;;;;;;;10.00;99.90;;;;;;5052160;28;19930;-74
2023/03/22 06:34:25;;;;;;;;;;;10.00;99.90;;;;;;5010204;28;209641;-74
2023/03/22 06:36:52;;;;;;;;;;;10.00;99.90;;;;;;5058845;28;19927;-74
2023/03/22 06:39:19;;;;;;;;;;;10.10;99.90;;;;;;5005979;28;211053;-75
2023/03/22 06:41:45;;;;;;;;;;;10.10;99.90;;;;;;5070528;28;19925;-75
2023/03/22 06:44:11;;;;;;;;;;;10.10;99.90;;;;;;4997365;28;207191;-74
2023/03/22 06:46:37;;;;;;;;;;;10.10;99.90;;;;;;5037741;28;20316;-74
2023/03/22 06:49:03;;;;;;;;;;;10.20;99.90;;;;;;5010746;28;206643;-74
2023/03/22 06:51:29;;;;;;;;;;;10.20;99.90;;;;;;5053351;28;19924;-75
2023/03/22 06:53:55;;;;;;;;;;;10.30;99.90;;;;;;5023488;28;207297;-74
2023/03/22 06:56:21;;;;;;;;;;;10.30;99.90;;;;;;5053952;28;19928;-76
2023/03/22 06:58:47;;;;;;;;;;;10.30;99.90;;;;;;5010765;28;207772;-71
2023/03/22 07:01:13;;;;;;;;;;;10.30;99.90;;;;;;5073700;28;19932;-72
2023/03/22 07:03:39;;;;;;;;;;;10.40;99.90;;;;;;5040104;28;206828;-73
2023/03/22 07:06:07;;;;;;;;;;;10.40;99.90;;;;;;4997841;28;186674;-73
2023/03/22 07:08:33;;;;;;;;;;;10.50;99.90;;;;;;5059974;28;19931;-74
2023/03/22 07:10:59;;;;;;;;;;;10.60;99.90;;;;;;5004188;28;203959;-74
2023/03/22 07:13:25;;;;;;;;;;;10.70;99.90;;;;;;5063850;28;19920;-75
2023/03/22 07:15:59;;;;;;;;;;;10.80;99.90;;;;;;5003148;28;208750;-75
2023/03/22 07:18:25;;;;;;;;;;;10.80;99.90;;;;;;5066587;28;19928;-74
2023/03/22 07:20:51;;;;;;;;;;;10.80;99.90;;;;;;5003857;28;205718;-75
2023/03/22 07:23:17;;;;;;;;;;;10.80;99.90;;;;;;5066572;28;19920;-76
2023/03/22 07:25:44;;;;;;;;;;;10.80;99.90;;;;;;5002886;28;170951;-75
2023/03/22 07:28:10;;;;;;;;;;;10.80;99.90;;;;;;5059355;28;19924;-75
2023/03/22 07:30:36;;;;;;;;;;;10.80;99.90;;;;;;4987058;28;215037;-75
2023/03/22 07:33:06;;;;;;;;;;;10.90;99.90;;;;;;5060015;28;19925;-75
2023/03/22 07:35:32;;;;;;;;;;;10.90;99.90;;;;;;5014718;28;202603;-76
2023/03/22 07:37:59;;;;;;;;;;;10.90;99.90;;;;;;5061320;28;19932;-76
2023/03/22 07:40:26;;;;;;;;;;;10.90;99.90;;;;;;5011704;28;205983;-76
2023/03/22 07:42:52;;;;;;;;;;;10.90;99.90;;;;;;5068990;28;20282;-75
2023/03/22 07:45:19;;;;;;;;;;;10.90;99.90;;;;;;5006750;28;208056;-76
2023/03/22 07:47:45;;;;;;;;;;;10.80;99.90;;;;;;5061464;28;19939;-78
2023/03/22 07:50:12;;;;;;;;;;;10.80;99.90;;;;;;5015257;28;208105;-77
2023/03/22 07:52:38;;;;;;;;;;;10.80;99.90;;;;;;5062873;28;19921;-76
2023/03/22 07:55:04;;;;;;;;;;;10.80;99.90;;;;;;5021232;28;215634;-74
2023/03/22 07:57:30;;;;;;;;;;;10.80;99.90;;;;;;5064573;28;19931;-74
2023/03/22 07:59:56;;;;;;;;;;;10.80;99.90;;;;;;5013307;28;207680;-74
2023/03/22 08:02:22;;;;;;;;;;;10.80;99.90;;;;;;5068879;28;20376;-74
2023/03/22 08:04:49;;;;;;;;;;;10.90;99.90;;;;;;4995902;28;204425;-75
2023/03/22 08:07:17;;;;;;;;;;;11.00;99.90;;;;;;5063409;28;19936;-76
2023/03/22 08:09:43;;;;;;;;;;;11.30;99.90;;;;;;5011197;28;206798;-77
2023/03/22 08:12:09;;;;;;;;;;;11.30;99.90;;;;;;5061710;28;20400;-75
2023/03/22 08:14:36;;;;;;;;;;;11.40;99.90;;;;;;5008016;28;142063;-75
2023/03/22 08:17:03;;;;;;;;;;;11.40;99.90;;;;;;5057477;28;19943;-75
2023/03/22 08:19:29;;;;;;;;;;;11.30;99.90;;;;;;5019984;28;211643;-76
2023/03/22 08:21:55;;;;;;;;;;;11.20;99.90;;;;;;5075370;28;19935;-75
2023/03/22 08:24:21;;;;;;;;;;;11.10;99.90;;;;;;5017680;28;211061;-75
2023/03/22 08:26:48;;;;;;;;;;;11.10;99.90;;;;;;5070179;28;19935;-76
2023/03/22 08:29:14;;;;;;;;;;;11.10;99.90;;;;;;5011379;28;207423;-76
2023/03/22 08:31:41;;;;;;;;;;;11.10;99.90;;;;;;5063060;28;19929;-75
2023/03/22 08:34:07;;;;;;;;;;;11.10;99.90;;;;;;5015923;28;216872;-76
2023/03/22 08:36:33;;;;;;;;;;;11.20;99.90;;;;;;5074658;28;21077;-76
2023/03/22 08:39:00;;;;;;;;;;;11.30;99.90;;;;;;5009662;28;209871;-76
2023/03/22 08:41:26;;;;;;;;;;;11.50;99.90;;;;;;5073961;28;19928;-76
2023/03/22 08:43:52;;;;;;;;;;;11.50;99.90;;;;;;5007437;28;211553;-76
2023/03/22 08:46:18;;;;;;;;;;;11.70;99.90;;;;;;5057747;28;19942;-75
2023/03/22 08:48:49;;;;;;;;;;;11.70;99.90;;;;;;5017677;28;213473;-73
2023/03/22 08:51:16;;;;;;;;;;;11.80;99.90;;;;;;5048593;28;19931;-75
2023/03/22 08:53:42;;;;;;;;;;;11.80;99.90;;;;;;5032348;28;206561;-72
2023/03/22 08:56:08;;;;;;;;;;;11.90;99.90;;;;;;5058174;28;19925;-75
2023/03/22 08:58:35;;;;;;;;;;;11.90;99.90;;;;;;5063458;28;19968;-75
2023/03/22 09:01:01;;;;;;;;;;;11.90;99.90;;;;;;4987174;28;208190;-75
2023/03/22 09:03:27;;;;;;;;;;;11.90;99.90;;;;;;5066519;28;19928;-75
2023/03/22 09:05:53;;;;;;;;;;;12.00;99.90;;;;;;4996710;28;191287;-77
2023/03/22 09:08:19;;;;;;;;;;;12.00;99.90;;;;;;5063264;28;20682;-78
2023/03/22 09:10:46;;;;;;;;;;;12.10;99.90;;;;;;5022656;28;206382;-75
2023/03/22 09:13:13;;;;;;;;;;;12.10;99.90;;;;;;5063428;28;19924;-76
2023/03/22 09:15:39;;;;;;;;;;;12.00;99.90;;;;;;5003862;28;207382;-75
2023/03/22 09:18:05;;;;;;;;;;;12.00;99.90;;;;;;5062333;28;19929;-76
2023/03/22 09:20:31;;;;;;;;;;;11.90;99.90;;;;;;5013645;28;209907;-75
2023/03/22 09:22:57;;;;;;;;;;;11.90;99.90;;;;;;5064596;28;19921;-75
2023/03/22 09:25:23;;;;;;;;;;;11.80;99.90;;;;;;5001938;28;215002;-76
2023/03/22 09:27:49;;;;;;;;;;;11.80;99.90;;;;;;5062952;28;19931;-76
2023/03/22 09:30:15;;;;;;;;;;;11.90;99.90;;;;;;5001584;28;208830;-75
2023/03/22 09:32:41;;;;;;;;;;;11.80;99.90;;;;;;5062033;28;20462;-76
2023/03/22 09:35:07;;;;;;;;;;;11.70;99.90;;;;;;5028667;28;208621;-76
2023/03/22 09:37:33;;;;;;;;;;;11.80;99.90;;;;;;5070032;28;20332;-76
2023/03/22 09:39:59;;;;;;;;;;;11.70;99.90;;;;;;5029307;28;206477;-77
2023/03/22 09:42:31;;;;;;;;;;;11.80;99.90;;;;;;5054965;28;19924;-76
2023/03/22 09:45:00;;;;;;;;;;;11.80;99.90;;;;;;5026737;28;207631;-75
2023/03/22 09:47:32;;;;;;;;;;;11.70;99.90;;;;;;5068665;28;19935;-77
2023/03/22 09:50:24;;;;;;;;;;;11.70;99.90;;;;;;5011864;28;208700;-76
2023/03/22 09:52:51;;;;;;;;;;;11.60;99.90;;;;;;5038600;28;19925;-76
2023/03/22 09:55:17;;;;;;;;;;;11.50;99.90;;;;;;5014791;28;205623;-75
2023/03/22 09:57:44;;;;;;;;;;;11.40;99.90;;;;;;5042066;28;20575;-75
2023/03/22 10:00:17;;;;;;;;;;;11.40;99.90;;;;;;5014437;28;219013;-76
2023/03/22 10:03:02;;;;;;;;;;;11.30;99.90;;;;;;5073373;28;19920;-76
2023/03/22 10:05:50;;;;;;;;;;;11.30;99.90;;;;;;5014084;28;143069;-76
2023/03/22 10:08:26;;;;;;;;;;;11.40;99.90;;;;;;5068291;28;19927;-76
2023/03/22 10:10:52;;;;;;;;;;;11.20;99.90;;;;;;5014926;28;209758;-75
2023/03/22 10:13:37;;;;;;;;;;;11.20;99.90;;;;;;5067149;28;19921;-75
2023/03/22 10:16:06;;;;;;;;;;;11.10;99.90;;;;;;5005699;28;176466;-75
2023/03/22 10:18:42;;;;;;;;;;;11.00;99.90;;;;;;5067174;28;20321;-77
2023/03/22 10:21:10;;;;;;;;;;;11.00;99.90;;;;;;5011597;28;209498;-75
2023/03/22 10:23:56;;;;;;;;;;;11.00;99.90;;;;;;5077164;28;19935;-75
2023/03/22 10:26:25;;;;;;;;;;;10.90;99.90;;;;;;5007162;28;207605;-78
2023/03/22 10:29:02;;;;;;;;;;;10.90;99.90;;;;;;5005605;28;207769;-76
2023/03/22 10:31:29;;;;;;;;;;;10.90;99.90;;;;;;5050917;28;21175;-75
2023/03/22 10:33:55;;;;;;;;;;;10.90;99.90;;;;;;5001036;28;209835;-77
2023/03/22 10:36:23;;;;;;;;;;;10.80;99.90;;;;;;5064500;28;20422;-75
2023/03/22 10:38:52;;;;;;;;;;;10.80;99.90;;;;;;4997839;28;213999;-76
2023/03/22 10:41:22;;;;;;;;;;;10.70;99.90;;;;;;5061361;28;19924;-77
2023/03/22 10:43:50;;;;;;;;;;;10.70;99.90;;;;;;5012946;28;206796;-75
2023/03/22 10:46:18;;;;;;;;;;;10.70;99.90;;;;;;5052067;28;19928;-75
2023/03/22 10:48:45;;;;;;;;;;;10.70;99.90;;;;;;5009315;28;208320;-76
2023/03/22 10:51:19;;;;;;;;;;;10.70;99.90;;;;;;5055365;28;19920;-77
2023/03/22 10:53:46;;;;;;;;;;;10.70;99.90;;;;;;5007604;28;207564;-78
2023/03/22 10:56:14;;;;;;;;;;;10.70;99.90;;;;;;5053157;28;19932;-75
2023/03/22 10:58:40;;;;;;;;;;;10.70;99.90;;;;;;5033964;28;209591;-75
2023/03/22 11:01:11;;;;;;;;;;;10.60;99.90;;;;;;5051523;28;209190;-78
2023/03/22 11:03:41;;;;;;;;;;;10.60;99.90;;;;;;5056975;28;206855;-76
2023/03/22 11:06:12;;;;;;;;;;;10.60;99.90;;;;;;5024400;28;255067;-81
2023/03/22 11:08:45;;;;;;;;;;;10.50;99.90;;;;;;5045085;28;209636;-77
2023/03/22 11:11:14;;;;;;;;;;;10.50;99.90;;;;;;5019447;28;208846;-76
2023/03/22 11:13:40;;;;;;;;;;;10.50;99.90;;;;;;5035964;28;212025;-75
2023/03/22 11:16:06;;;;;;;;;;;10.50;99.90;;;;;;5044867;28;125827;-77
2023/03/22 11:18:33;;;;;;;;;;;10.50;99.90;;;;;;5062311;28;19920;-73
2023/03/22 11:21:07;;;;;;;;;;;10.50;99.90;;;;;;4989212;28;208270;-76
2023/03/22 11:23:33;;;;;;;;;;;10.50;99.90;;;;;;5081078;28;19921;-74
2023/03/22 11:26:05;;;;;;;;;;;10.50;99.90;;;;;;5019298;28;239436;-75
2023/03/22 11:28:36;;;;;;;;;;;10.50;99.90;;;;;;5078109;28;20289;-72
2023/03/22 11:31:12;;;;;;;;;;;10.50;99.90;;;;;;4992876;28;207965;-73
2023/03/22 11:34:05;;;;;;;;;;;10.50;99.90;;;;;;5059574;28;203244;-73
2023/03/22 11:36:40;;;;;;;;;;;10.50;99.90;;;;;;4992046;28;19928;-72
2023/03/22 11:39:06;;;;;;;;;;;10.60;99.90;;;;;;5011219;28;205672;-73
2023/03/22 11:41:37;;;;;;;;;;;10.60;99.90;;;;;;5068207;28;19928;-74
2023/03/22 11:44:05;;;;;;;;;;;10.60;99.90;;;;;;5013926;28;206391;-72
2023/03/22 11:46:32;;;;;;;;;;;10.60;99.90;;;;;;5072754;28;19948;-73
2023/03/22 11:49:04;;;;;;;;;;;10.60;99.90;;;;;;5005045;28;227503;-72
2023/03/22 11:51:33;;;;;;;;;;;10.70;99.90;;;;;;5048801;28;19924;-70
2023/03/22 11:54:19;;;;;;;;;;;10.70;99.90;;;;;;5010289;28;205142;-70
2023/03/22 11:56:46;;;;;;;;;;;10.70;99.90;;;;;;5061574;28;19924;-71
2023/03/22 11:59:14;;;;;;;;;;;10.60;99.90;;;;;;5006408;28;206892;-70
2023/03/22 12:01:45;;;;;;;;;;;10.70;99.90;;;;;;5047676;28;19924;-70
2023/03/22 12:04:16;;;;;;;;;;;10.60;99.90;;;;;;5002216;28;158229;-71
2023/03/22 12:06:42;;;;;;;;;;;10.60;99.90;;;;;;5049623;28;22036;-71
2023/03/22 12:09:11;;;;;;;;;;;10.70;99.90;;;;;;4991718;28;229664;-71
2023/03/22 12:11:42;;;;;;;;;;;10.70;99.90;;;;;;5047595;28;19931;-70
2023/03/22 12:14:15;;;;;;;;;;;10.70;99.90;;;;;;4992863;28;211525;-70
2023/03/22 12:16:56;;;;;;;;;;;10.70;99.90;;;;;;5052476;28;19924;-72
2023/03/22 12:19:35;;;;;;;;;;;10.70;99.90;;;;;;5012839;28;205471;-70
2023/03/22 12:22:01;;;;;;;;;;;10.70;99.90;;;;;;5037966;28;19924;-70
2023/03/22 12:24:29;;;;;;;;;;;10.70;99.90;;;;;;5014697;28;213162;-70
2023/03/22 12:27:12;;;;;;;;;;;10.70;99.90;;;;;;5061359;28;19928;-70
2023/03/22 12:29:42;;;;;;;;;;;10.80;99.90;;;;;;5018698;28;208830;-70
2023/03/22 12:32:14;;;;;;;;;;;10.70;99.90;;;;;;5052436;28;19928;-70
2023/03/22 12:34:41;;;;;;;;;;;10.70;99.90;;;;;;5008848;28;212589;-71
2023/03/22 12:37:13;;;;;;;;;;;10.80;99.90;;;;;;5066365;28;19924;-71
2023/03/22 12:39:44;;;;;;;;;;;10.80;99.90;;;;;;5002636;28;206421;-71
2023/03/22 12:42:30;;;;;;;;;;;10.80;99.90;;;;;;5066683;28;19932;-71
2023/03/22 12:45:00;;;;;;;;;;;10.80;99.90;;;;;;5006826;28;209599;-70
2023/03/22 12:47:31;;;;;;;;;;;10.70;99.90;;;;;;5063463;28;19921;-71
2023/03/22 12:50:06;;;;;;;;;;;10.60;99.90;;;;;;5025745;28;209188;-71
2023/03/22 12:52:35;;;;;;;;;;;10.50;99.90;;;;;;5066209;28;19920;-72
2023/03/22 12:55:02;;;;;;;;;;;10.50;99.90;;;;;;5012713;28;210837;-71
2023/03/22 12:57:28;;;;;;;;;;;10.50;99.90;;;;;;5080741;28;19927;-72
2023/03/22 12:59:56;;;;;;;;;;;10.40;99.90;;;;;;5019959;28;77854;-71
2023/03/22 13:02:30;;;;;;;;;;;10.40;99.90;;;;;;5068681;28;19995;-69
2023/03/22 13:04:57;;;;;;;;;;;10.40;99.90;;;;;;5002431;28;214598;-71
2023/03/22 13:07:27;;;;;;;;;;;10.40;99.90;;;;;;5060665;28;19924;-71
2023/03/22 13:09:53;;;;;;;;;;;10.40;99.90;;;;;;5012099;28;206941;-70
2023/03/22 13:12:20;;;;;;;;;;;10.40;99.90;;;;;;5067938;28;19930;-71
2023/03/22 13:14:49;;;;;;;;;;;10.40;99.90;;;;;;5016015;28;210237;-70
2023/03/22 13:17:35;;;;;;;;;;;10.40;99.90;;;;;;5075854;28;20447;-72
2023/03/22 13:20:10;;;;;;;;;;;10.40;99.90;;;;;;5007045;28;209471;-72
2023/03/22 13:22:42;;;;;;;;;;;10.40;99.90;;;;;;5065402;28;19936;-72
2023/03/22 13:25:18;;;;;;;;;;;10.40;99.90;;;;;;5026235;28;206661;-72
2023/03/22 13:27:43;;;;;;;;;;;10.40;99.90;;;;;;5068018;28;19924;-72
2023/03/22 13:30:28;;;;;;;;;;;10.50;99.90;;;;;;5004039;28;211486;-72
2023/03/22 13:32:54;;;;;;;;;;;10.40;99.90;;;;;;5061912;28;20396;-72
2023/03/22 13:35:26;;;;;;;;;;;10.40;99.90;;;;;;5017937;28;207098;-73
2023/03/22 13:37:54;;;;;;;;;;;10.40;99.90;;;;;;5062333;28;20407;-72
2023/03/22 13:40:20;;;;;;;;;;;10.30;99.90;;;;;;5015219;28;207521;-72
2023/03/22 13:42:46;;;;;;;;;;;10.30;99.90;;;;;;5066252;28;20006;-73
2023/03/22 13:45:32;;;;;;;;;;;10.20;99.90;;;;;;5030268;28;208934;-72
2023/03/22 13:48:12;;;;;;;;;;;10.30;99.90;;;;;;5062840;28;19924;-72
2023/03/22 13:50:38;;;;;;;;;;;10.20;99.90;;;;;;5022591;28;207066;-72
2023/03/22 13:53:27;;;;;;;;;;;10.20;99.90;;;;;;5079717;28;20614;-73
2023/03/22 13:55:53;;;;;;;;;;;10.20;99.90;;;;;;5011849;28;210300;-72
2023/03/22 13:58:37;;;;;;;;;;;10.20;99.90;;;;;;5061881;28;19928;-72
2023/03/22 14:01:36;;;;;;;;;;;10.20;99.90;;;;;;5000185;28;178947;-72
2023/03/22 14:04:11;;;;;;;;;;;10.20;99.90;;;;;;4978146;28;200581;-72
2023/03/22 14:06:48;;;;;;;;;;;10.10;99.90;;;;;;5056588;28;20034;-72
2023/03/22 14:09:34;;;;;;;;;;;10.20;99.90;;;;;;4990405;28;209630;-72
2023/03/22 14:12:00;;;;;;;;;;;10.20;99.90;;;;;;5058523;28;19925;-73
2023/03/22 14:14:33;;;;;;;;;;;10.30;99.90;;;;;;5017946;28;205928;-72
2023/03/22 14:17:10;;;;;;;;;;;10.20;99.90;;;;;;5057294;28;19920;-74
2023/03/22 14:19:37;;;;;;;;;;;10.30;99.90;;;;;;4995077;28;209565;-73
2023/03/22 14:22:05;;;;;;;;;;;10.20;99.90;;;;;;5052147;28;19921;-73
2023/03/22 14:24:32;;;;;;;;;;;10.30;99.90;;;;;;5006095;28;210087;-73
2023/03/22 14:26:58;;;;;;;;;;;10.20;99.90;;;;;;5054138;28;19921;-72